sensor_id;sensor_type;location;lat;lon;timestamp;temperature;humidity
3690;DHT22;1861;50.240;8.596;2024-01-15T00:01:03;2.80;99.90
3690;DHT22;1861;50.240;8.596;2024-01-15T00:03:31;2.80;99.90
3690;DHT22;1861;50.240;8.596;2024-01-15T00:06:00;2.80;99.90
3690;DHT22;1861;50.240;8.596;2024-01-15T00:08:29;2.90;99.90
3690;DHT22;1861;50.240;8.596;2024-01-15T00:10:58;2.90;99.90
3690;DHT22;1861;50.240;8.596;2024-01-15T00:13:26;2.80;99.90
3690;DHT22;1861;50.240;8.596;2024-01-15T00:15:54;2.80;99.90
3690;DHT22;1861;50.240;8.596;2024-01-15T00:18:23;2.80;99.90
3690;DHT22;1861;50.240;8.596;2024-01-15T00:20:51;2.80;99.90
3690;DHT22;1861;50.240;8.596;2024-01-15T00:23:19;2.60;99.90
3690;DHT22;1861;50.240;8.596;2024-01-15T00:25:50;2.80;99.90
3690;DHT22;1861;50.240;8.596;2024-01-15T00:28:18;2.80;99.90
3690;DHT22;1861;50.240;8.596;2024-01-15T00:30:47;2.80;99.90
3690;DHT22;1861;50.240;8.596;2024-01-15T00:33:15;2.80;99.90
3690;DHT22;1861;50.240;8.596;2024-01-15T00:35:43;2.90;99.90
3690;DHT22;1861;50.240;8.596;2024-01-15T00:38:11;2.90;99.90
3690;DHT22;1861;50.240;8.596;2024-01-15T00:40:39;2.90;99.90
3690;DHT22;1861;50.240;8.596;2024-01-15T00:43:09;2.80;99.90
3690;DHT22;1861;50.240;8.596;2024-01-15T00:45:37;2.90;99.90
3690;DHT22;1861;50.240;8.596;2024-01-15T00:48:06;2.90;99.90
3690;DHT22;1861;50.240;8.596;2024-01-15T00:50:34;2.90;99.90
3690;DHT22;1861;50.240;8.596;2024-01-15T00:53:02;2.90;99.90
3690;DHT22;1861;50.240;8.596;2024-01-15T00:55:31;2.90;99.90
3690;DHT22;1861;50.240;8.596;2024-01-15T00:57:59;2.90;99.90
3690;DHT22;1861;50.240;8.596;2024-01-15T01:00:28;2.90;99.90
3690;DHT22;1861;50.240;8.596;2024-01-15T01:02:57;3.00;99.90
3690;DHT22;1861;50.240;8.596;2024-01-15T01:05:25;3.00;99.90
3690;DHT22;1861;50.240;8.596;2024-01-15T01:07:53;3.00;99.90
3690;DHT22;1861;50.240;8.596;2024-01-15T01:10:21;3.00;99.90
3690;DHT22;1861;50.240;8.596;2024-01-15T01:12:49;3.00;99.90
3690;DHT22;1861;50.240;8.596;2024-01-15T01:15:17;3.00;99.90
3690;DHT22;1861;50.240;8.596;2024-01-15T01:17:47;3.00;99.90
3690;DHT22;1861;50.240;8.596;2024-01-15T01:20:15;3.00;99.90
3690;DHT22;1861;50.240;8.596;2024-01-15T01:22:45;3.10;99.90
3690;DHT22;1861;50.240;8.596;2024-01-15T01:25:13;3.00;99.90
3690;DHT22;1861;50.240;8.596;2024-01-15T01:27:41;3.00;99.90
3690;DHT22;1861;50.240;8.596;2024-01-15T01:30:10;3.00;99.90
3690;DHT22;1861;50.240;8.596;2024-01-15T01:32:39;3.00;99.90
3690;DHT22;1861;50.240;8.596;2024-01-15T01:35:08;2.90;99.90
3690;DHT22;1861;50.240;8.596;2024-01-15T01:37:37;3.00;99.90
3690;DHT22;1861;50.240;8.596;2024-01-15T01:40:06;2.80;99.90
3690;DHT22;1861;50.240;8.596;2024-01-15T01:42:34;2.90;99.90
3690;DHT22;1861;50.240;8.596;2024-01-15T01:45:03;2.90;99.90
3690;DHT22;1861;50.240;8.596;2024-01-15T01:47:32;2.90;99.90
3690;DHT22;1861;50.240;8.596;2024-01-15T01:50:01;2.80;99.90
3690;DHT22;1861;50.240;8.596;2024-01-15T01:52:31;2.90;99.90
3690;DHT22;1861;50.240;8.596;2024-01-15T01:55:00;2.90;99.90
3690;DHT22;1861;50.240;8.596;2024-01-15T01:57:31;2.90;99.90
3690;DHT22;1861;50.240;8.596;2024-01-15T02:00:01;2.90;99.90
3690;DHT22;1861;50.240;8.596;2024-01-15T02:02:37;2.80;99.90
3690;DHT22;1861;50.240;8.596;2024-01-15T02:05:06;2.90;99.90
3690;DHT22;1861;50.240;8.596;2024-01-15T02:07:36;2.90;99.90
3690;DHT22;1861;50.240;8.596;2024-01-15T02:10:05;3.00;99.90
3690;DHT22;1861;50.240;8.596;2024-01-15T02:12:34;2.90;99.90
3690;DHT22;1861;50.240;8.596;2024-01-15T02:15:02;2.80;99.90
3690;DHT22;1861;50.240;8.596;2024-01-15T02:17:31;2.90;99.90
3690;DHT22;1861;50.240;8.596;2024-01-15T02:20:00;2.90;99.90
3690;DHT22;1861;50.240;8.596;2024-01-15T02:22:28;2.90;99.90
3690;DHT22;1861;50.240;8.596;2024-01-15T02:24:57;2.90;99.90
3690;DHT22;1861;50.240;8.596;2024-01-15T02:27:25;3.00;99.90
3690;DHT22;1861;50.240;8.596;2024-01-15T02:29:54;3.00;99.90
3690;DHT22;1861;50.240;8.596;2024-01-15T02:32:23;2.80;99.90
3690;DHT22;1861;50.240;8.596;2024-01-15T02:34:51;2.90;99.90
3690;DHT22;1861;50.240;8.596;2024-01-15T02:37:19;2.80;99.90
3690;DHT22;1861;50.240;8.596;2024-01-15T02:39:47;2.80;99.90
3690;DHT22;1861;50.240;8.596;2024-01-15T02:42:17;2.80;99.90
3690;DHT22;1861;50.240;8.596;2024-01-15T02:44:45;2.80;99.90
3690;DHT22;1861;50.240;8.596;2024-01-15T02:47:13;2.70;99.90
3690;DHT22;1861;50.240;8.596;2024-01-15T02:49:41;2.70;99.90
3690;DHT22;1861;50.240;8.596;2024-01-15T02:52:09;2.80;99.90
3690;DHT22;1861;50.240;8.596;2024-01-15T02:54:37;2.80;99.90
3690;DHT22;1861;50.240;8.596;2024-01-15T02:57:06;2.80;99.90
3690;DHT22;1861;50.240;8.596;2024-01-15T02:59:35;2.90;99.90
3690;DHT22;1861;50.240;8.596;2024-01-15T03:02:03;2.70;99.90
3690;DHT22;1861;50.240;8.596;2024-01-15T03:04:32;2.60;99.90
3690;DHT22;1861;50.240;8.596;2024-01-15T03:07:00;2.50;99.90
3690;DHT22;1861;50.240;8.596;2024-01-15T03:09:28;2.60;99.90
3690;DHT22;1861;50.240;8.596;2024-01-15T03:11:57;2.50;99.90
3690;DHT22;1861;50.240;8.596;2024-01-15T03:14:25;2.40;99.90
3690;DHT22;1861;50.240;8.596;2024-01-15T03:16:55;2.50;99.90
3690;DHT22;1861;50.240;8.596;2024-01-15T03:19:23;2.60;99.90
3690;DHT22;1861;50.240;8.596;2024-01-15T03:21:51;2.70;99.90
3690;DHT22;1861;50.240;8.596;2024-01-15T03:24:19;2.80;99.90
3690;DHT22;1861;50.240;8.596;2024-01-15T03:26:48;2.70;99.90
3690;DHT22;1861;50.240;8.596;2024-01-15T03:29:16;2.70;99.90
3690;DHT22;1861;50.240;8.596;2024-01-15T03:31:44;2.60;99.90
3690;DHT22;1861;50.240;8.596;2024-01-15T03:34:13;2.60;99.90
3690;DHT22;1861;50.240;8.596;2024-01-15T03:36:41;2.70;99.90
3690;DHT22;1861;50.240;8.596;2024-01-15T03:39:09;2.70;99.90
3690;DHT22;1861;50.240;8.596;2024-01-15T03:41:38;2.70;99.90
3690;DHT22;1861;50.240;8.596;2024-01-15T03:44:06;2.70;99.90
3690;DHT22;1861;50.240;8.596;2024-01-15T03:46:34;2.70;99.90
3690;DHT22;1861;50.240;8.596;2024-01-15T03:49:02;2.80;99.90
3690;DHT22;1861;50.240;8.596;2024-01-15T03:51:32;2.70;99.90
3690;DHT22;1861;50.240;8.596;2024-01-15T03:54:00;2.70;99.90
3690;DHT22;1861;50.240;8.596;2024-01-15T03:56:28;2.80;99.90
3690;DHT22;1861;50.240;8.596;2024-01-15T03:58:56;2.70;99.90
3690;DHT22;1861;50.240;8.596;2024-01-15T04:01:24;2.80;99.90
3690;DHT22;1861;50.240;8.596;2024-01-15T04:03:52;2.80;99.90
3690;DHT22;1861;50.240;8.596;2024-01-15T04:06:20;2.80;99.90
3690;DHT22;1861;50.240;8.596;2024-01-15T04:08:50;2.70;99.90
3690;DHT22;1861;50.240;8.596;2024-01-15T04:11:18;2.70;99.90
3690;DHT22;1861;50.240;8.596;2024-01-15T04:13:46;2.80;99.90
3690;DHT22;1861;50.240;8.596;2024-01-15T04:16:15;2.80;99.90
3690;DHT22;1861;50.240;8.596;2024-01-15T04:18:43;2.90;99.90
3690;DHT22;1861;50.240;8.596;2024-01-15T04:21:11;2.90;99.90
3690;DHT22;1861;50.240;8.596;2024-01-15T04:23:39;2.80;99.90
3690;DHT22;1861;50.240;8.596;2024-01-15T04:26:08;2.80;99.90
3690;DHT22;1861;50.240;8.596;2024-01-15T04:28:36;2.80;99.90
3690;DHT22;1861;50.240;8.596;2024-01-15T04:31:05;2.70;99.90
3690;DHT22;1861;50.240;8.596;2024-01-15T04:33:33;2.80;99.90
3690;DHT22;1861;50.240;8.596;2024-01-15T04:36:02;2.90;99.90
3690;DHT22;1861;50.240;8.596;2024-01-15T04:38:31;2.80;99.90
3690;DHT22;1861;50.240;8.596;2024-01-15T04:41:00;2.70;99.90
3690;DHT22;1861;50.240;8.596;2024-01-15T04:43:29;2.70;99.90
3690;DHT22;1861;50.240;8.596;2024-01-15T04:45:57;2.70;99.90
3690;DHT22;1861;50.240;8.596;2024-01-15T04:48:26;2.60;99.90
3690;DHT22;1861;50.240;8.596;2024-01-15T04:50:54;2.70;99.90
3690;DHT22;1861;50.240;8.596;2024-01-15T04:53:22;2.60;99.90
3690;DHT22;1861;50.240;8.596;2024-01-15T04:55:50;2.60;99.90
3690;DHT22;1861;50.240;8.596;2024-01-15T04:58:18;2.70;99.90
3690;DHT22;1861;50.240;8.596;2024-01-15T05:00:47;2.70;99.90
3690;DHT22;1861;50.240;8.596;2024-01-15T05:03:15;2.80;99.90
3690;DHT22;1861;50.240;8.596;2024-01-15T05:05:44;2.70;99.90
3690;DHT22;1861;50.240;8.596;2024-01-15T05:08:12;2.70;99.90
3690;DHT22;1861;50.240;8.596;2024-01-15T05:10:40;2.80;99.90
3690;DHT22;1861;50.240;8.596;2024-01-15T05:13:08;2.90;99.90
3690;DHT22;1861;50.240;8.596;2024-01-15T05:15:36;2.90;99.90
3690;DHT22;1861;50.240;8.596;2024-01-15T05:18:06;3.00;99.90
3690;DHT22;1861;50.240;8.596;2024-01-15T05:20:34;3.00;99.90
3690;DHT22;1861;50.240;8.596;2024-01-15T05:23:03;3.00;99.90
3690;DHT22;1861;50.240;8.596;2024-01-15T05:25:31;3.00;99.90
3690;DHT22;1861;50.240;8.596;2024-01-15T05:27:59;3.00;99.90
3690;DHT22;1861;50.240;8.596;2024-01-15T05:30:27;3.10;99.90
3690;DHT22;1861;50.240;8.596;2024-01-15T05:32:56;3.10;99.90
3690;DHT22;1861;50.240;8.596;2024-01-15T05:35:25;3.10;99.90
3690;DHT22;1861;50.240;8.596;2024-01-15T05:37:54;3.10;99.90
3690;DHT22;1861;50.240;8.596;2024-01-15T05:40:22;3.00;99.90
3690;DHT22;1861;50.240;8.596;2024-01-15T05:42:50;2.90;99.90
3690;DHT22;1861;50.240;8.596;2024-01-15T05:45:18;2.80;99.90
3690;DHT22;1861;50.240;8.596;2024-01-15T05:47:46;2.80;99.90
3690;DHT22;1861;50.240;8.596;2024-01-15T05:50:14;2.80;99.90
3690;DHT22;1861;50.240;8.596;2024-01-15T05:52:44;2.80;99.90
3690;DHT22;1861;50.240;8.596;2024-01-15T05:55:12;2.80;99.90
3690;DHT22;1861;50.240;8.596;2024-01-15T05:57:40;2.80;99.90
3690;DHT22;1861;50.240;8.596;2024-01-15T06:00:09;2.90;99.90
3690;DHT22;1861;50.240;8.596;2024-01-15T06:02:38;2.80;99.90
3690;DHT22;1861;50.240;8.596;2024-01-15T06:05:06;2.80;99.90
3690;DHT22;1861;50.240;8.596;2024-01-15T06:07:35;2.90;99.90
3690;DHT22;1861;50.240;8.596;2024-01-15T06:10:06;2.90;99.90
3690;DHT22;1861;50.240;8.596;2024-01-15T06:12:34;2.90;99.90
3690;DHT22;1861;50.240;8.596;2024-01-15T06:15:03;2.80;99.90
3690;DHT22;1861;50.240;8.596;2024-01-15T06:17:31;2.90;99.90
3690;DHT22;1861;50.240;8.596;2024-01-15T06:20:00;2.90;99.90
3690;DHT22;1861;50.240;8.596;2024-01-15T06:22:28;2.90;99.90
3690;DHT22;1861;50.240;8.596;2024-01-15T06:24:57;2.80;99.90
3690;DHT22;1861;50.240;8.596;2024-01-15T06:27:27;2.80;99.90
3690;DHT22;1861;50.240;8.596;2024-01-15T06:29:55;2.80;99.90
3690;DHT22;1861;50.240;8.596;2024-01-15T06:32:23;2.80;99.90
3690;DHT22;1861;50.240;8.596;2024-01-15T06:34:51;2.70;99.90
3690;DHT22;1861;50.240;8.596;2024-01-15T06:37:20;2.60;99.90
3690;DHT22;1861;50.240;8.596;2024-01-15T06:39:48;2.80;99.90
3690;DHT22;1861;50.240;8.596;2024-01-15T06:42:16;2.80;99.90
3690;DHT22;1861;50.240;8.596;2024-01-15T06:44:45;2.80;99.90
3690;DHT22;1861;50.240;8.596;2024-01-15T06:47:14;2.70;99.90
3690;DHT22;1861;50.240;8.596;2024-01-15T06:49:44;2.80;99.90
3690;DHT22;1861;50.240;8.596;2024-01-15T06:52:12;2.80;99.90
3690;DHT22;1861;50.240;8.596;2024-01-15T06:54:40;2.70;99.90
3690;DHT22;1861;50.240;8.596;2024-01-15T06:57:08;2.70;99.90
3690;DHT22;1861;50.240;8.596;2024-01-15T06:59:37;2.60;99.90
3690;DHT22;1861;50.240;8.596;2024-01-15T07:02:06;2.60;99.90
3690;DHT22;1861;50.240;8.596;2024-01-15T07:04:34;2.50;99.90
3690;DHT22;1861;50.240;8.596;2024-01-15T07:07:05;2.60;99.90
3690;DHT22;1861;50.240;8.596;2024-01-15T07:09:33;2.70;99.90
3690;DHT22;1861;50.240;8.596;2024-01-15T07:12:02;2.70;99.90
3690;DHT22;1861;50.240;8.596;2024-01-15T07:14:30;2.70;99.90
3690;DHT22;1861;50.240;8.596;2024-01-15T07:16:58;2.70;99.90
3690;DHT22;1861;50.240;8.596;2024-01-15T07:19:28;2.60;99.90
3690;DHT22;1861;50.240;8.596;2024-01-15T07:21:56;2.70;99.90
3690;DHT22;1861;50.240;8.596;2024-01-15T07:24:24;2.60;99.90
3690;DHT22;1861;50.240;8.596;2024-01-15T07:26:53;2.60;99.90
3690;DHT22;1861;50.240;8.596;2024-01-15T07:29:21;2.80;99.90
3690;DHT22;1861;50.240;8.596;2024-01-15T07:31:50;2.70;99.90
3690;DHT22;1861;50.240;8.596;2024-01-15T07:34:18;2.60;99.90
3690;DHT22;1861;50.240;8.596;2024-01-15T07:36:48;2.70;99.90
3690;DHT22;1861;50.240;8.596;2024-01-15T07:39:17;2.70;99.90
3690;DHT22;1861;50.240;8.596;2024-01-15T07:41:45;2.80;99.90
3690;DHT22;1861;50.240;8.596;2024-01-15T07:44:13;2.80;99.90
3690;DHT22;1861;50.240;8.596;2024-01-15T07:46:44;2.70;99.90
3690;DHT22;1861;50.240;8.596;2024-01-15T07:49:12;2.80;99.90
3690;DHT22;1861;50.240;8.596;2024-01-15T07:51:41;2.80;99.90
3690;DHT22;1861;50.240;8.596;2024-01-15T07:54:11;2.80;99.90
3690;DHT22;1861;50.240;8.596;2024-01-15T07:56:53;2.90;99.90
3690;DHT22;1861;50.240;8.596;2024-01-15T07:59:21;2.90;99.90
3690;DHT22;1861;50.240;8.596;2024-01-15T08:01:49;2.90;99.90
3690;DHT22;1861;50.240;8.596;2024-01-15T08:04:18;2.80;99.90
3690;DHT22;1861;50.240;8.596;2024-01-15T08:06:46;2.80;99.90
3690;DHT22;1861;50.240;8.596;2024-01-15T08:09:16;2.90;99.90
3690;DHT22;1861;50.240;8.596;2024-01-15T08:11:44;2.90;99.90
3690;DHT22;1861;50.240;8.596;2024-01-15T08:14:12;2.90;99.90
3690;DHT22;1861;50.240;8.596;2024-01-15T08:16:41;2.80;99.90
3690;DHT22;1861;50.240;8.596;2024-01-15T08:19:10;2.80;99.90
3690;DHT22;1861;50.240;8.596;2024-01-15T08:21:39;2.90;99.90
3690;DHT22;1861;50.240;8.596;2024-01-15T08:24:07;2.90;99.90
3690;DHT22;1861;50.240;8.596;2024-01-15T08:26:37;2.90;99.90
3690;DHT22;1861;50.240;8.596;2024-01-15T08:29:06;2.90;99.90
3690;DHT22;1861;50.240;8.596;2024-01-15T08:31:34;3.00;99.90
3690;DHT22;1861;50.240;8.596;2024-01-15T08:34:03;3.00;99.90
3690;DHT22;1861;50.240;8.596;2024-01-15T08:36:31;2.80;99.90
3690;DHT22;1861;50.240;8.596;2024-01-15T08:39:02;2.90;99.90
3690;DHT22;1861;50.240;8.596;2024-01-15T08:41:32;2.90;99.90
3690;DHT22;1861;50.240;8.596;2024-01-15T08:44:02;2.80;99.90
3690;DHT22;1861;50.240;8.596;2024-01-15T08:46:30;3.00;99.90
3690;DHT22;1861;50.240;8.596;2024-01-15T08:48:58;2.80;99.90
3690;DHT22;1861;50.240;8.596;2024-01-15T08:51:27;2.90;99.90
3690;DHT22;1861;50.240;8.596;2024-01-15T08:53:56;2.90;99.90
3690;DHT22;1861;50.240;8.596;2024-01-15T08:56:25;2.90;99.90
3690;DHT22;1861;50.240;8.596;2024-01-15T08:58:54;2.90;99.90
3690;DHT22;1861;50.240;8.596;2024-01-15T09:01:23;2.90;99.90
3690;DHT22;1861;50.240;8.596;2024-01-15T09:03:51;3.00;99.90
3690;DHT22;1861;50.240;8.596;2024-01-15T09:06:20;3.00;99.90
3690;DHT22;1861;50.240;8.596;2024-01-15T09:08:48;3.00;99.90
3690;DHT22;1861;50.240;8.596;2024-01-15T09:11:16;3.10;99.90
3690;DHT22;1861;50.240;8.596;2024-01-15T09:13:44;3.10;99.90
3690;DHT22;1861;50.240;8.596;2024-01-15T09:16:12;3.10;99.90
3690;DHT22;1861;50.240;8.596;2024-01-15T09:18:42;3.30;99.90
3690;DHT22;1861;50.240;8.596;2024-01-15T09:21:11;3.20;99.90
3690;DHT22;1861;50.240;8.596;2024-01-15T09:23:39;3.30;99.90
3690;DHT22;1861;50.240;8.596;2024-01-15T09:26:08;3.30;99.90
3690;DHT22;1861;50.240;8.596;2024-01-15T09:28:36;3.40;99.90
3690;DHT22;1861;50.240;8.596;2024-01-15T09:31:04;3.50;99.90
3690;DHT22;1861;50.240;8.596;2024-01-15T09:33:33;3.50;99.90
3690;DHT22;1861;50.240;8.596;2024-01-15T09:36:04;3.40;99.90
3690;DHT22;1861;50.240;8.596;2024-01-15T09:38:32;3.40;99.90
3690;DHT22;1861;50.240;8.596;2024-01-15T09:41:00;3.40;99.90
3690;DHT22;1861;50.240;8.596;2024-01-15T09:43:29;3.40;99.90
3690;DHT22;1861;50.240;8.596;2024-01-15T09:45:57;3.40;99.90
3690;DHT22;1861;50.240;8.596;2024-01-15T09:48:25;3.30;99.90
3690;DHT22;1861;50.240;8.596;2024-01-15T09:50:54;3.40;99.90
3690;DHT22;1861;50.240;8.596;2024-01-15T09:53:24;3.30;99.90
3690;DHT22;1861;50.240;8.596;2024-01-15T09:55:53;3.30;99.90
3690;DHT22;1861;50.240;8.596;2024-01-15T09:58:21;3.30;99.90
3690;DHT22;1861;50.240;8.596;2024-01-15T10:00:50;3.30;99.90
3690;DHT22;1861;50.240;8.596;2024-01-15T10:03:20;3.20;99.90
3690;DHT22;1861;50.240;8.596;2024-01-15T10:05:49;3.20;99.90
3690;DHT22;1861;50.240;8.596;2024-01-15T10:08:18;3.20;99.90
3690;DHT22;1861;50.240;8.596;2024-01-15T10:10:48;3.20;99.90
3690;DHT22;1861;50.240;8.596;2024-01-15T10:13:16;3.20;99.90
3690;DHT22;1861;50.240;8.596;2024-01-15T10:15:45;3.30;99.90
3690;DHT22;1861;50.240;8.596;2024-01-15T10:18:14;3.20;99.90
3690;DHT22;1861;50.240;8.596;2024-01-15T10:20:43;3.20;99.90
3690;DHT22;1861;50.240;8.596;2024-01-15T10:23:11;3.30;99.90
3690;DHT22;1861;50.240;8.596;2024-01-15T10:25:41;3.40;99.90
3690;DHT22;1861;50.240;8.596;2024-01-15T10:28:11;3.30;99.90
3690;DHT22;1861;50.240;8.596;2024-01-15T10:30:41;3.30;99.90
3690;DHT22;1861;50.240;8.596;2024-01-15T10:33:09;3.20;99.90
3690;DHT22;1861;50.240;8.596;2024-01-15T10:35:38;3.30;99.90
3690;DHT22;1861;50.240;8.596;2024-01-15T10:38:07;3.40;99.90
3690;DHT22;1861;50.240;8.596;2024-01-15T10:40:35;3.40;99.90
3690;DHT22;1861;50.240;8.596;2024-01-15T10:43:03;3.40;99.90
3690;DHT22;1861;50.240;8.596;2024-01-15T10:45:33;3.30;99.90
3690;DHT22;1861;50.240;8.596;2024-01-15T10:48:01;3.40;99.90
3690;DHT22;1861;50.240;8.596;2024-01-15T10:50:32;3.40;99.90
3690;DHT22;1861;50.240;8.596;2024-01-15T10:53:00;3.40;99.90
3690;DHT22;1861;50.240;8.596;2024-01-15T10:55:30;3.50;99.90
3690;DHT22;1861;50.240;8.596;2024-01-15T10:57:59;3.50;99.90
3690;DHT22;1861;50.240;8.596;2024-01-15T11:00:28;3.40;99.90
3690;DHT22;1861;50.240;8.596;2024-01-15T11:03:00;3.40;99.90
3690;DHT22;1861;50.240;8.596;2024-01-15T11:05:29;3.60;99.90
3690;DHT22;1861;50.240;8.596;2024-01-15T11:08:01;3.60;99.90
3690;DHT22;1861;50.240;8.596;2024-01-15T11:10:39;3.60;99.90
3690;DHT22;1861;50.240;8.596;2024-01-15T11:13:09;3.50;99.90
3690;DHT22;1861;50.240;8.596;2024-01-15T11:16:00;3.50;99.90
3690;DHT22;1861;50.240;8.596;2024-01-15T11:18:31;3.60;99.90
3690;DHT22;1861;50.240;8.596;2024-01-15T11:21:21;3.70;99.90
3690;DHT22;1861;50.240;8.596;2024-01-15T11:23:54;3.70;99.90
3690;DHT22;1861;50.240;8.596;2024-01-15T11:26:33;3.70;99.90
3690;DHT22;1861;50.240;8.596;2024-01-15T11:29:02;3.70;99.90
3690;DHT22;1861;50.240;8.596;2024-01-15T11:32:01;3.70;99.90
3690;DHT22;1861;50.240;8.596;2024-01-15T11:34:53;3.60;99.90
3690;DHT22;1861;50.240;8.596;2024-01-15T11:37:26;3.70;99.90
3690;DHT22;1861;50.240;8.596;2024-01-15T11:39:56;3.80;99.90
3690;DHT22;1861;50.240;8.596;2024-01-15T11:42:30;3.90;99.90
3690;DHT22;1861;50.240;8.596;2024-01-15T11:44:58;3.90;99.90
3690;DHT22;1861;50.240;8.596;2024-01-15T11:50:30;4.00;99.90
3690;DHT22;1861;50.240;8.596;2024-01-15T11:53:00;4.10;99.90
3690;DHT22;1861;50.240;8.596;2024-01-15T11:55:34;4.10;99.90
3690;DHT22;1861;50.240;8.596;2024-01-15T11:58:06;3.90;99.90
3690;DHT22;1861;50.240;8.596;2024-01-15T12:00:39;4.00;99.90
3690;DHT22;1861;50.240;8.596;2024-01-15T12:03:08;4.00;99.90
3690;DHT22;1861;50.240;8.596;2024-01-15T12:05:39;4.00;99.90
3690;DHT22;1861;50.240;8.596;2024-01-15T12:08:08;4.00;99.90
3690;DHT22;1861;50.240;8.596;2024-01-15T12:10:39;4.00;99.90
3690;DHT22;1861;50.240;8.596;2024-01-15T12:13:11;4.00;99.90
3690;DHT22;1861;50.240;8.596;2024-01-15T12:15:41;4.00;99.90
3690;DHT22;1861;50.240;8.596;2024-01-15T12:18:11;3.90;99.90
3690;DHT22;1861;50.240;8.596;2024-01-15T12:20:41;4.00;99.90
3690;DHT22;1861;50.240;8.596;2024-01-15T12:23:10;4.10;99.90
3690;DHT22;1861;50.240;8.596;2024-01-15T12:25:39;4.00;99.90
3690;DHT22;1861;50.240;8.596;2024-01-15T12:28:07;4.00;99.90
3690;DHT22;1861;50.240;8.596;2024-01-15T12:30:37;4.00;99.90
3690;DHT22;1861;50.240;8.596;2024-01-15T12:33:07;3.90;99.90
3690;DHT22;1861;50.240;8.596;2024-01-15T12:35:37;4.10;99.90
3690;DHT22;1861;50.240;8.596;2024-01-15T12:38:06;4.10;99.90
3690;DHT22;1861;50.240;8.596;2024-01-15T12:40:34;4.00;99.90
3690;DHT22;1861;50.240;8.596;2024-01-15T12:43:05;4.00;99.90
3690;DHT22;1861;50.240;8.596;2024-01-15T12:45:35;3.90;99.90
3690;DHT22;1861;50.240;8.596;2024-01-15T12:48:05;4.00;99.90
3690;DHT22;1861;50.240;8.596;2024-01-15T12:50:34;4.00;99.90
3690;DHT22;1861;50.240;8.596;2024-01-15T12:53:03;4.00;99.90
3690;DHT22;1861;50.240;8.596;2024-01-15T12:55:32;4.10;99.90
3690;DHT22;1861;50.240;8.596;2024-01-15T12:58:01;4.10;99.90
3690;DHT22;1861;50.240;8.596;2024-01-15T13:00:29;4.10;99.90
3690;DHT22;1861;50.240;8.596;2024-01-15T13:02:57;4.20;99.90
3690;DHT22;1861;50.240;8.596;2024-01-15T13:05:27;4.40;99.90
3690;DHT22;1861;50.240;8.596;2024-01-15T13:07:56;4.30;99.90
3690;DHT22;1861;50.240;8.596;2024-01-15T13:10:26;4.30;99.90
3690;DHT22;1861;50.240;8.596;2024-01-15T13:12:58;4.30;99.90
3690;DHT22;1861;50.240;8.596;2024-01-15T13:15:26;4.30;99.90
3690;DHT22;1861;50.240;8.596;2024-01-15T13:17:54;4.40;99.90
3690;DHT22;1861;50.240;8.596;2024-01-15T13:20:23;4.30;99.90
3690;DHT22;1861;50.240;8.596;2024-01-15T13:22:51;4.50;99.90
3690;DHT22;1861;50.240;8.596;2024-01-15T13:25:19;4.50;99.90
3690;DHT22;1861;50.240;8.596;2024-01-15T13:27:47;4.50;99.90
3690;DHT22;1861;50.240;8.596;2024-01-15T13:30:18;4.50;99.90
3690;DHT22;1861;50.240;8.596;2024-01-15T13:32:46;4.40;99.90
3690;DHT22;1861;50.240;8.596;2024-01-15T13:35:15;4.40;99.90
3690;DHT22;1861;50.240;8.596;2024-01-15T13:37:43;4.60;99.90
3690;DHT22;1861;50.240;8.596;2024-01-15T13:40:11;4.60;99.90
3690;DHT22;1861;50.240;8.596;2024-01-15T13:42:45;4.70;99.90
3690;DHT22;1861;50.240;8.596;2024-01-15T13:45:14;4.70;99.90
3690;DHT22;1861;50.240;8.596;2024-01-15T13:47:43;4.70;99.90
3690;DHT22;1861;50.240;8.596;2024-01-15T13:50:12;4.80;99.90
3690;DHT22;1861;50.240;8.596;2024-01-15T13:52:41;4.80;99.90
3690;DHT22;1861;50.240;8.596;2024-01-15T13:55:09;4.70;99.90
3690;DHT22;1861;50.240;8.596;2024-01-15T13:57:37;4.80;99.90
3690;DHT22;1861;50.240;8.596;2024-01-15T14:00:06;4.90;99.90
3690;DHT22;1861;50.240;8.596;2024-01-15T14:02:38;4.80;99.90
3690;DHT22;1861;50.240;8.596;2024-01-15T14:05:08;4.80;99.90
3690;DHT22;1861;50.240;8.596;2024-01-15T14:07:36;4.70;99.90
3690;DHT22;1861;50.240;8.596;2024-01-15T14:10:05;4.90;99.90
3690;DHT22;1861;50.240;8.596;2024-01-15T14:12:35;4.80;99.90
3690;DHT22;1861;50.240;8.596;2024-01-15T14:15:04;4.60;99.90
3690;DHT22;1861;50.240;8.596;2024-01-15T14:17:32;4.70;99.90
3690;DHT22;1861;50.240;8.596;2024-01-15T14:20:01;4.90;99.90
3690;DHT22;1861;50.240;8.596;2024-01-15T14:22:33;5.00;99.90
3690;DHT22;1861;50.240;8.596;2024-01-15T14:25:01;4.90;99.90
3690;DHT22;1861;50.240;8.596;2024-01-15T14:27:30;4.90;99.90
3690;DHT22;1861;50.240;8.596;2024-01-15T14:29:59;4.80;99.90
3690;DHT22;1861;50.240;8.596;2024-01-15T14:32:27;4.70;99.90
3690;DHT22;1861;50.240;8.596;2024-01-15T14:34:56;4.70;99.90
3690;DHT22;1861;50.240;8.596;2024-01-15T14:37:24;4.70;99.90
3690;DHT22;1861;50.240;8.596;2024-01-15T14:39:54;4.70;99.90
3690;DHT22;1861;50.240;8.596;2024-01-15T14:42:22;4.90;99.90
3690;DHT22;1861;50.240;8.596;2024-01-15T14:44:51;4.90;99.90
3690;DHT22;1861;50.240;8.596;2024-01-15T14:47:19;4.60;99.90
3690;DHT22;1861;50.240;8.596;2024-01-15T14:49:51;4.60;99.90
3690;DHT22;1861;50.240;8.596;2024-01-15T14:52:19;4.70;99.90
3690;DHT22;1861;50.240;8.596;2024-01-15T14:54:48;4.80;99.90
3690;DHT22;1861;50.240;8.596;2024-01-15T14:57:17;4.70;99.90
3690;DHT22;1861;50.240;8.596;2024-01-15T14:59:46;4.60;99.90
3690;DHT22;1861;50.240;8.596;2024-01-15T15:02:14;4.50;99.90
3690;DHT22;1861;50.240;8.596;2024-01-15T15:04:42;4.50;99.90
3690;DHT22;1861;50.240;8.596;2024-01-15T15:07:15;4.60;99.90
3690;DHT22;1861;50.240;8.596;2024-01-15T15:09:43;4.60;99.90
3690;DHT22;1861;50.240;8.596;2024-01-15T15:12:11;4.60;99.90
3690;DHT22;1861;50.240;8.596;2024-01-15T15:14:41;4.60;99.90
3690;DHT22;1861;50.240;8.596;2024-01-15T15:17:25;4.60;99.90
3690;DHT22;1861;50.240;8.596;2024-01-15T15:19:54;4.60;99.90
3690;DHT22;1861;50.240;8.596;2024-01-15T15:22:22;4.60;99.90
3690;DHT22;1861;50.240;8.596;2024-01-15T15:24:51;4.50;99.90
3690;DHT22;1861;50.240;8.596;2024-01-15T15:27:19;4.60;99.90
3690;DHT22;1861;50.240;8.596;2024-01-15T15:29:49;4.40;99.90
3690;DHT22;1861;50.240;8.596;2024-01-15T15:32:18;4.30;99.90
3690;DHT22;1861;50.240;8.596;2024-01-15T15:34:46;4.40;99.90
3690;DHT22;1861;50.240;8.596;2024-01-15T15:37:15;4.30;99.90
3690;DHT22;1861;50.240;8.596;2024-01-15T15:39:44;4.30;99.90
3690;DHT22;1861;50.240;8.596;2024-01-15T15:42:12;4.30;99.90
3690;DHT22;1861;50.240;8.596;2024-01-15T15:44:41;4.30;99.90
3690;DHT22;1861;50.240;8.596;2024-01-15T15:47:14;4.30;99.90
3690;DHT22;1861;50.240;8.596;2024-01-15T15:49:42;4.30;99.90
3690;DHT22;1861;50.240;8.596;2024-01-15T15:52:11;4.30;99.90
3690;DHT22;1861;50.240;8.596;2024-01-15T15:54:39;4.30;99.90
3690;DHT22;1861;50.240;8.596;2024-01-15T15:57:07;4.30;99.90
3690;DHT22;1861;50.240;8.596;2024-01-15T15:59:35;4.30;99.90
3690;DHT22;1861;50.240;8.596;2024-01-15T16:02:03;4.40;99.90
3690;DHT22;1861;50.240;8.596;2024-01-15T16:04:33;4.40;99.90
3690;DHT22;1861;50.240;8.596;2024-01-15T16:07:01;4.40;99.90
3690;DHT22;1861;50.240;8.596;2024-01-15T16:09:30;4.40;99.90
3690;DHT22;1861;50.240;8.596;2024-01-15T16:11:59;4.40;99.90
3690;DHT22;1861;50.240;8.596;2024-01-15T16:14:27;4.40;99.90
3690;DHT22;1861;50.240;8.596;2024-01-15T16:16:55;4.50;99.90
3690;DHT22;1861;50.240;8.596;2024-01-15T16:19:45;4.60;99.90
3690;DHT22;1861;50.240;8.596;2024-01-15T16:22:33;4.60;99.90
3690;DHT22;1861;50.240;8.596;2024-01-15T16:25:22;4.30;99.90
3690;DHT22;1861;50.240;8.596;2024-01-15T16:27:50;4.30;99.90
3690;DHT22;1861;50.240;8.596;2024-01-15T16:30:19;4.30;99.90
3690;DHT22;1861;50.240;8.596;2024-01-15T16:33:00;4.30;99.90